sensor_id;sensor_type;location;lat;lon;timestamp;P1;durP1;ratioP1;P2;durP2;ratioP2
30515;SDS011;17297;54.022;10.760;2023-07-20T00:02:13;1.30;;;1.20;;
30515;SDS011;17297;54.022;10.760;2023-07-20T00:04:39;0.95;;;0.95;;
30515;SDS011;17297;54.022;10.760;2023-07-20T00:07:04;2.30;;;1.30;;
30515;SDS011;17297;54.022;10.760;2023-07-20T00:09:30;1.80;;;1.67;;
30515;SDS011;17297;54.022;10.760;2023-07-20T00:11:55;1.75;;;1.65;;
30515;SDS011;17297;54.022;10.760;2023-07-20T00:14:21;2.58;;;1.77;;
30515;SDS011;17297;54.022;10.760;2023-07-20T00:16:47;1.40;;;1.30;;
30515;SDS011;17297;54.022;10.760;2023-07-20T00:19:20;1.63;;;1.52;;
30515;SDS011;17297;54.022;10.760;2023-07-20T00:21:52;1.67;;;1.58;;
30515;SDS011;17297;54.022;10.760;2023-07-20T00:24:19;1.80;;;1.70;;
30515;SDS011;17297;54.022;10.760;2023-07-20T00:26:44;2.00;;;1.77;;
30515;SDS011;17297;54.022;10.760;2023-07-20T00:29:09;2.72;;;1.58;;
30515;SDS011;17297;54.022;10.760;2023-07-20T00:31:35;1.80;;;1.52;;
30515;SDS011;17297;54.022;10.760;2023-07-20T00:34:02;1.95;;;1.75;;
30515;SDS011;17297;54.022;10.760;2023-07-20T00:36:28;3.65;;;1.50;;
30515;SDS011;17297;54.022;10.760;2023-07-20T00:38:53;2.15;;;1.63;;
30515;SDS011;17297;54.022;10.760;2023-07-20T00:41:18;1.70;;;1.60;;
30515;SDS011;17297;54.022;10.760;2023-07-20T00:43:44;1.35;;;1.25;;
30515;SDS011;17297;54.022;10.760;2023-07-20T00:46:10;2.35;;;1.52;;
30515;SDS011;17297;54.022;10.760;2023-07-20T00:48:36;1.60;;;1.40;;
30515;SDS011;17297;54.022;10.760;2023-07-20T00:51:01;1.70;;;1.60;;
30515;SDS011;17297;54.022;10.760;2023-07-20T00:53:27;2.40;;;1.42;;
30515;SDS011;17297;54.022;10.760;2023-07-20T00:55:53;2.65;;;1.77;;
30515;SDS011;17297;54.022;10.760;2023-07-20T00:58:19;1.30;;;1.17;;
30515;SDS011;17297;54.022;10.760;2023-07-20T01:00:44;1.50;;;1.40;;
30515;SDS011;17297;54.022;10.760;2023-07-20T01:03:10;1.60;;;1.50;;
30515;SDS011;17297;54.022;10.760;2023-07-20T01:05:40;1.23;;;1.13;;
30515;SDS011;17297;54.022;10.760;2023-07-20T01:11:19;1.50;;;1.40;;
30515;SDS011;17297;54.022;10.760;2023-07-20T01:13:53;2.22;;;1.15;;
30515;SDS011;17297;54.022;10.760;2023-07-20T01:16:18;3.10;;;1.70;;
30515;SDS011;17297;54.022;10.760;2023-07-20T01:18:44;1.20;;;1.00;;
30515;SDS011;17297;54.022;10.760;2023-07-20T01:21:11;1.65;;;1.40;;
30515;SDS011;17297;54.022;10.760;2023-07-20T01:24:00;1.95;;;1.20;;
30515;SDS011;17297;54.022;10.760;2023-07-20T01:29:49;1.30;;;1.20;;
30515;SDS011;17297;54.022;10.760;2023-07-20T01:32:29;1.20;;;1.10;;
30515;SDS011;17297;54.022;10.760;2023-07-20T01:34:56;1.83;;;1.10;;
30515;SDS011;17297;54.022;10.760;2023-07-20T01:37:24;1.48;;;1.20;;
30515;SDS011;17297;54.022;10.760;2023-07-20T01:39:54;1.13;;;1.10;;
30515;SDS011;17297;54.022;10.760;2023-07-20T01:42:24;1.75;;;1.10;;
30515;SDS011;17297;54.022;10.760;2023-07-20T01:44:53;0.82;;;0.82;;
30515;SDS011;17297;54.022;10.760;2023-07-20T01:47:18;2.10;;;1.40;;
30515;SDS011;17297;54.022;10.760;2023-07-20T01:49:44;2.22;;;1.30;;
30515;SDS011;17297;54.022;10.760;2023-07-20T01:52:10;2.20;;;1.20;;
30515;SDS011;17297;54.022;10.760;2023-07-20T01:54:35;1.35;;;1.25;;
30515;SDS011;17297;54.022;10.760;2023-07-20T01:57:01;2.22;;;1.25;;
30515;SDS011;17297;54.022;10.760;2023-07-20T01:59:26;1.42;;;1.20;;
30515;SDS011;17297;54.022;10.760;2023-07-20T02:01:52;2.25;;;1.42;;
30515;SDS011;17297;54.022;10.760;2023-07-20T02:04:17;2.38;;;1.55;;
30515;SDS011;17297;54.022;10.760;2023-07-20T02:06:43;1.40;;;1.30;;
30515;SDS011;17297;54.022;10.760;2023-07-20T02:09:10;2.45;;;1.27;;
30515;SDS011;17297;54.022;10.760;2023-07-20T02:11:35;2.38;;;1.27;;
30515;SDS011;17297;54.022;10.760;2023-07-20T02:14:00;3.42;;;1.50;;
30515;SDS011;17297;54.022;10.760;2023-07-20T02:16:26;2.05;;;1.48;;
30515;SDS011;17297;54.022;10.760;2023-07-20T02:18:52;1.50;;;1.40;;
30515;SDS011;17297;54.022;10.760;2023-07-20T02:21:17;1.75;;;1.60;;
30515;SDS011;17297;54.022;10.760;2023-07-20T02:23:43;1.75;;;1.40;;
30515;SDS011;17297;54.022;10.760;2023-07-20T02:26:08;2.78;;;1.80;;
30515;SDS011;17297;54.022;10.760;2023-07-20T02:28:33;2.15;;;1.50;;
30515;SDS011;17297;54.022;10.760;2023-07-20T02:30:59;1.70;;;1.40;;
30515;SDS011;17297;54.022;10.760;2023-07-20T02:33:25;1.55;;;1.45;;
30515;SDS011;17297;54.022;10.760;2023-07-20T02:35:51;1.83;;;1.73;;
30515;SDS011;17297;54.022;10.760;2023-07-20T02:38:17;2.42;;;1.75;;
30515;SDS011;17297;54.022;10.760;2023-07-20T02:40:42;4.07;;;2.28;;
30515;SDS011;17297;54.022;10.760;2023-07-20T02:43:08;1.90;;;1.40;;
30515;SDS011;17297;54.022;10.760;2023-07-20T02:45:34;2.20;;;1.20;;
30515;SDS011;17297;54.022;10.760;2023-07-20T02:48:00;3.63;;;1.50;;
30515;SDS011;17297;54.022;10.760;2023-07-20T02:50:26;2.22;;;1.70;;
30515;SDS011;17297;54.022;10.760;2023-07-20T02:52:51;2.15;;;1.58;;
30515;SDS011;17297;54.022;10.760;2023-07-20T02:55:16;1.67;;;1.48;;
30515;SDS011;17297;54.022;10.760;2023-07-20T02:57:42;1.77;;;1.42;;
30515;SDS011;17297;54.022;10.760;2023-07-20T03:00:07;2.40;;;1.42;;
30515;SDS011;17297;54.022;10.760;2023-07-20T03:02:33;1.88;;;1.42;;
30515;SDS011;17297;54.022;10.760;2023-07-20T03:04:58;1.65;;;1.42;;
30515;SDS011;17297;54.022;10.760;2023-07-20T03:07:26;1.50;;;1.30;;
30515;SDS011;17297;54.022;10.760;2023-07-20T03:09:53;2.25;;;1.17;;
30515;SDS011;17297;54.022;10.760;2023-07-20T03:12:20;1.83;;;1.10;;
30515;SDS011;17297;54.022;10.760;2023-07-20T03:14:45;2.15;;;1.60;;
30515;SDS011;17297;54.022;10.760;2023-07-20T03:17:11;1.45;;;1.35;;
30515;SDS011;17297;54.022;10.760;2023-07-20T03:19:36;1.65;;;1.27;;
30515;SDS011;17297;54.022;10.760;2023-07-20T03:22:01;3.78;;;1.33;;
30515;SDS011;17297;54.022;10.760;2023-07-20T03:24:27;1.65;;;1.40;;
30515;SDS011;17297;54.022;10.760;2023-07-20T03:26:52;2.80;;;1.40;;
30515;SDS011;17297;54.022;10.760;2023-07-20T03:29:18;1.00;;;1.00;;
30515;SDS011;17297;54.022;10.760;2023-07-20T03:31:45;1.38;;;1.20;;
30515;SDS011;17297;54.022;10.760;2023-07-20T03:34:10;1.27;;;1.17;;
30515;SDS011;17297;54.022;10.760;2023-07-20T03:36:36;1.98;;;1.02;;
30515;SDS011;17297;54.022;10.760;2023-07-20T03:39:01;1.55;;;1.40;;
30515;SDS011;17297;54.022;10.760;2023-07-20T03:41:28;1.55;;;1.02;;
30515;SDS011;17297;54.022;10.760;2023-07-20T03:43:53;1.35;;;1.25;;
30515;SDS011;17297;54.022;10.760;2023-07-20T03:46:19;2.22;;;1.70;;
30515;SDS011;17297;54.022;10.760;2023-07-20T03:48:44;1.20;;;1.10;;
30515;SDS011;17297;54.022;10.760;2023-07-20T03:51:09;4.05;;;1.48;;
30515;SDS011;17297;54.022;10.760;2023-07-20T03:53:35;4.38;;;2.08;;
30515;SDS011;17297;54.022;10.760;2023-07-20T03:56:00;1.63;;;1.10;;
30515;SDS011;17297;54.022;10.760;2023-07-20T03:58:26;2.60;;;1.35;;
30515;SDS011;17297;54.022;10.760;2023-07-20T04:00:51;2.22;;;1.40;;
30515;SDS011;17297;54.022;10.760;2023-07-20T04:03:17;1.75;;;1.30;;
30515;SDS011;17297;54.022;10.760;2023-07-20T04:05:44;1.38;;;1.10;;
30515;SDS011;17297;54.022;10.760;2023-07-20T04:08:09;1.42;;;1.27;;
30515;SDS011;17297;54.022;10.760;2023-07-20T04:10:36;6.13;;;1.50;;
30515;SDS011;17297;54.022;10.760;2023-07-20T04:13:02;1.25;;;1.10;;
30515;SDS011;17297;54.022;10.760;2023-07-20T04:15:28;3.45;;;1.67;;
30515;SDS011;17297;54.022;10.760;2023-07-20T04:17:53;1.65;;;1.10;;
30515;SDS011;17297;54.022;10.760;2023-07-20T04:20:21;1.38;;;1.15;;
30515;SDS011;17297;54.022;10.760;2023-07-20T04:22:47;1.83;;;1.13;;
30515;SDS011;17297;54.022;10.760;2023-07-20T04:25:14;1.70;;;1.10;;
30515;SDS011;17297;54.022;10.760;2023-07-20T04:27:39;1.52;;;1.10;;
30515;SDS011;17297;54.022;10.760;2023-07-20T04:30:09;1.50;;;1.00;;
30515;SDS011;17297;54.022;10.760;2023-07-20T04:32:37;0.82;;;0.80;;
30515;SDS011;17297;54.022;10.760;2023-07-20T04:35:06;1.48;;;1.38;;
30515;SDS011;17297;54.022;10.760;2023-07-20T04:37:37;1.88;;;0.88;;
30515;SDS011;17297;54.022;10.760;2023-07-20T04:40:12;1.05;;;0.95;;
30515;SDS011;17297;54.022;10.760;2023-07-20T04:42:40;1.23;;;0.95;;
30515;SDS011;17297;54.022;10.760;2023-07-20T04:45:05;1.10;;;1.00;;
30515;SDS011;17297;54.022;10.760;2023-07-20T04:47:31;1.75;;;1.20;;
30515;SDS011;17297;54.022;10.760;2023-07-20T04:49:57;0.90;;;0.90;;
30515;SDS011;17297;54.022;10.760;2023-07-20T04:52:23;0.80;;;0.80;;
30515;SDS011;17297;54.022;10.760;2023-07-20T04:54:50;0.73;;;0.73;;
30515;SDS011;17297;54.022;10.760;2023-07-20T04:57:15;1.52;;;0.90;;
30515;SDS011;17297;54.022;10.760;2023-07-20T04:59:46;2.75;;;0.85;;
30515;SDS011;17297;54.022;10.760;2023-07-20T05:02:12;0.70;;;0.70;;
30515;SDS011;17297;54.022;10.760;2023-07-20T05:04:37;1.15;;;0.77;;
30515;SDS011;17297;54.022;10.760;2023-07-20T05:07:03;1.85;;;0.85;;
30515;SDS011;17297;54.022;10.760;2023-07-20T05:09:28;5.78;;;1.00;;
30515;SDS011;17297;54.022;10.760;2023-07-20T05:11:53;0.90;;;0.80;;
30515;SDS011;17297;54.022;10.760;2023-07-20T05:14:19;1.02;;;0.77;;
30515;SDS011;17297;54.022;10.760;2023-07-20T05:16:45;0.98;;;0.90;;
30515;SDS011;17297;54.022;10.760;2023-07-20T05:19:11;0.95;;;0.95;;
30515;SDS011;17297;54.022;10.760;2023-07-20T05:21:36;0.60;;;0.60;;
30515;SDS011;17297;54.022;10.760;2023-07-20T05:24:02;1.73;;;0.82;;
30515;SDS011;17297;54.022;10.760;2023-07-20T05:26:27;1.33;;;1.23;;
30515;SDS011;17297;54.022;10.760;2023-07-20T05:28:52;1.25;;;0.70;;
30515;SDS011;17297;54.022;10.760;2023-07-20T05:31:18;0.75;;;0.73;;
30515;SDS011;17297;54.022;10.760;2023-07-20T05:33:43;0.70;;;0.70;;
30515;SDS011;17297;54.022;10.760;2023-07-20T05:36:09;0.90;;;0.65;;
30515;SDS011;17297;54.022;10.760;2023-07-20T05:38:34;2.40;;;0.90;;
30515;SDS011;17297;54.022;10.760;2023-07-20T05:41:00;1.60;;;0.80;;
30515;SDS011;17297;54.022;10.760;2023-07-20T05:43:28;1.05;;;0.70;;
30515;SDS011;17297;54.022;10.760;2023-07-20T05:45:54;0.63;;;0.63;;
30515;SDS011;17297;54.022;10.760;2023-07-20T05:48:19;1.38;;;0.70;;
30515;SDS011;17297;54.022;10.760;2023-07-20T05:50:44;0.60;;;0.60;;
30515;SDS011;17297;54.022;10.760;2023-07-20T05:53:10;1.20;;;0.70;;
30515;SDS011;17297;54.022;10.760;2023-07-20T05:55:35;0.82;;;0.63;;
30515;SDS011;17297;54.022;10.760;2023-07-20T05:58:00;0.68;;;0.68;;
30515;SDS011;17297;54.022;10.760;2023-07-20T06:00:26;1.85;;;1.35;;
30515;SDS011;17297;54.022;10.760;2023-07-20T06:02:54;0.82;;;0.80;;
30515;SDS011;17297;54.022;10.760;2023-07-20T06:05:21;0.80;;;0.73;;
30515;SDS011;17297;54.022;10.760;2023-07-20T06:07:47;2.95;;;1.80;;
30515;SDS011;17297;54.022;10.760;2023-07-20T06:10:12;1.33;;;0.75;;
30515;SDS011;17297;54.022;10.760;2023-07-20T06:12:37;1.83;;;1.45;;
30515;SDS011;17297;54.022;10.760;2023-07-20T06:15:03;0.70;;;0.70;;
30515;SDS011;17297;54.022;10.760;2023-07-20T06:17:30;1.20;;;0.60;;
30515;SDS011;17297;54.022;10.760;2023-07-20T06:19:55;0.68;;;0.68;;
30515;SDS011;17297;54.022;10.760;2023-07-20T06:22:21;0.55;;;0.55;;
30515;SDS011;17297;54.022;10.760;2023-07-20T06:24:46;0.63;;;0.63;;
30515;SDS011;17297;54.022;10.760;2023-07-20T06:27:11;1.42;;;1.27;;
30515;SDS011;17297;54.022;10.760;2023-07-20T06:29:37;0.50;;;0.50;;
30515;SDS011;17297;54.022;10.760;2023-07-20T06:32:03;1.20;;;0.60;;
30515;SDS011;17297;54.022;10.760;2023-07-20T06:34:28;0.70;;;0.70;;
30515;SDS011;17297;54.022;10.760;2023-07-20T06:36:54;0.80;;;0.80;;
30515;SDS011;17297;54.022;10.760;2023-07-20T06:39:20;1.00;;;0.80;;
30515;SDS011;17297;54.022;10.760;2023-07-20T06:41:46;2.22;;;0.90;;
30515;SDS011;17297;54.022;10.760;2023-07-20T06:44:12;0.73;;;0.70;;
30515;SDS011;17297;54.022;10.760;2023-07-20T06:46:37;1.25;;;1.08;;
30515;SDS011;17297;54.022;10.760;2023-07-20T06:49:05;2.63;;;1.27;;
30515;SDS011;17297;54.022;10.760;2023-07-20T06:51:31;1.10;;;1.00;;
30515;SDS011;17297;54.022;10.760;2023-07-20T06:53:56;2.10;;;0.80;;
30515;SDS011;17297;54.022;10.760;2023-07-20T06:56:22;1.38;;;1.25;;
30515;SDS011;17297;54.022;10.760;2023-07-20T06:58:47;2.33;;;1.10;;
30515;SDS011;17297;54.022;10.760;2023-07-20T07:01:13;1.60;;;0.90;;
30515;SDS011;17297;54.022;10.760;2023-07-20T07:03:38;1.10;;;0.98;;
30515;SDS011;17297;54.022;10.760;2023-07-20T07:06:04;2.30;;;0.98;;
30515;SDS011;17297;54.022;10.760;2023-07-20T07:08:29;1.85;;;0.90;;
30515;SDS011;17297;54.022;10.760;2023-07-20T07:10:54;1.80;;;0.93;;
30515;SDS011;17297;54.022;10.760;2023-07-20T07:13:20;1.45;;;1.05;;
30515;SDS011;17297;54.022;10.760;2023-07-20T07:15:45;0.90;;;0.90;;
30515;SDS011;17297;54.022;10.760;2023-07-20T07:18:11;1.92;;;1.20;;
30515;SDS011;17297;54.022;10.760;2023-07-20T07:20:37;0.80;;;0.80;;
30515;SDS011;17297;54.022;10.760;2023-07-20T07:23:02;2.55;;;1.10;;
30515;SDS011;17297;54.022;10.760;2023-07-20T07:25:27;1.45;;;1.20;;
30515;SDS011;17297;54.022;10.760;2023-07-20T07:27:53;1.67;;;1.30;;
30515;SDS011;17297;54.022;10.760;2023-07-20T07:30:19;2.83;;;1.35;;
30515;SDS011;17297;54.022;10.760;2023-07-20T07:32:45;1.70;;;1.27;;
30515;SDS011;17297;54.022;10.760;2023-07-20T07:35:10;3.80;;;1.50;;
30515;SDS011;17297;54.022;10.760;2023-07-20T07:37:36;3.00;;;1.50;;
30515;SDS011;17297;54.022;10.760;2023-07-20T07:40:02;2.25;;;1.30;;
30515;SDS011;17297;54.022;10.760;2023-07-20T07:42:29;1.42;;;1.33;;
30515;SDS011;17297;54.022;10.760;2023-07-20T07:44:54;1.80;;;1.40;;
30515;SDS011;17297;54.022;10.760;2023-07-20T07:47:19;1.35;;;1.25;;
30515;SDS011;17297;54.022;10.760;2023-07-20T07:49:45;3.35;;;1.38;;
30515;SDS011;17297;54.022;10.760;2023-07-20T07:52:10;5.13;;;1.42;;
30515;SDS011;17297;54.022;10.760;2023-07-20T07:54:35;3.42;;;1.95;;
30515;SDS011;17297;54.022;10.760;2023-07-20T07:57:01;2.15;;;1.10;;
30515;SDS011;17297;54.022;10.760;2023-07-20T07:59:26;1.30;;;1.20;;
30515;SDS011;17297;54.022;10.760;2023-07-20T08:01:51;1.85;;;1.15;;
30515;SDS011;17297;54.022;10.760;2023-07-20T08:04:17;1.55;;;1.20;;
30515;SDS011;17297;54.022;10.760;2023-07-20T08:06:42;3.22;;;1.48;;
30515;SDS011;17297;54.022;10.760;2023-07-20T08:09:08;4.75;;;1.58;;
30515;SDS011;17297;54.022;10.760;2023-07-20T08:11:33;1.70;;;1.40;;
30515;SDS011;17297;54.022;10.760;2023-07-20T08:13:59;1.73;;;1.15;;
30515;SDS011;17297;54.022;10.760;2023-07-20T08:16:25;2.25;;;1.27;;
30515;SDS011;17297;54.022;10.760;2023-07-20T08:18:51;3.42;;;1.20;;
30515;SDS011;17297;54.022;10.760;2023-07-20T08:21:16;2.22;;;1.30;;
30515;SDS011;17297;54.022;10.760;2023-07-20T08:23:42;2.00;;;1.30;;
30515;SDS011;17297;54.022;10.760;2023-07-20T08:26:07;1.08;;;0.88;;
30515;SDS011;17297;54.022;10.760;2023-07-20T08:28:33;2.90;;;1.17;;
30515;SDS011;17297;54.022;10.760;2023-07-20T08:30:59;1.45;;;1.02;;
30515;SDS011;17297;54.022;10.760;2023-07-20T08:33:24;1.20;;;1.05;;
30515;SDS011;17297;54.022;10.760;2023-07-20T08:35:50;1.05;;;0.95;;
30515;SDS011;17297;54.022;10.760;2023-07-20T08:38:15;2.20;;;1.10;;
30515;SDS011;17297;54.022;10.760;2023-07-20T08:40:44;2.30;;;1.15;;
30515;SDS011;17297;54.022;10.760;2023-07-20T08:43:11;1.40;;;1.00;;
30515;SDS011;17297;54.022;10.760;2023-07-20T08:45:38;1.30;;;1.00;;
30515;SDS011;17297;54.022;10.760;2023-07-20T08:48:05;1.05;;;0.95;;
30515;SDS011;17297;54.022;10.760;2023-07-20T08:50:32;1.80;;;1.20;;
30515;SDS011;17297;54.022;10.760;2023-07-20T08:52:58;1.48;;;1.00;;
30515;SDS011;17297;54.022;10.760;2023-07-20T08:55:27;1.75;;;1.65;;
30515;SDS011;17297;54.022;10.760;2023-07-20T08:57:54;1.60;;;1.10;;
30515;SDS011;17297;54.022;10.760;2023-07-20T09:00:20;1.35;;;1.08;;
30515;SDS011;17297;54.022;10.760;2023-07-20T09:02:47;2.00;;;1.05;;
30515;SDS011;17297;54.022;10.760;2023-07-20T09:05:16;2.55;;;1.20;;
30515;SDS011;17297;54.022;10.760;2023-07-20T09:07:41;1.15;;;1.00;;
30515;SDS011;17297;54.022;10.760;2023-07-20T09:10:07;1.67;;;1.05;;
30515;SDS011;17297;54.022;10.760;2023-07-20T09:12:38;1.83;;;1.25;;
30515;SDS011;17297;54.022;10.760;2023-07-20T09:15:06;1.20;;;1.00;;
30515;SDS011;17297;54.022;10.760;2023-07-20T09:17:32;2.50;;;1.30;;
30515;SDS011;17297;54.022;10.760;2023-07-20T09:19:58;3.80;;;1.45;;
30515;SDS011;17297;54.022;10.760;2023-07-20T09:22:30;1.70;;;1.15;;
30515;SDS011;17297;54.022;10.760;2023-07-20T09:24:56;1.10;;;0.88;;
30515;SDS011;17297;54.022;10.760;2023-07-20T09:27:22;1.30;;;1.20;;
30515;SDS011;17297;54.022;10.760;2023-07-20T09:29:54;1.27;;;0.90;;
30515;SDS011;17297;54.022;10.760;2023-07-20T09:32:21;2.47;;;1.38;;
30515;SDS011;17297;54.022;10.760;2023-07-20T09:34:47;1.65;;;0.93;;
30515;SDS011;17297;54.022;10.760;2023-07-20T09:37:14;2.05;;;1.02;;
30515;SDS011;17297;54.022;10.760;2023-07-20T09:39:47;2.30;;;0.85;;
30515;SDS011;17297;54.022;10.760;2023-07-20T09:42:14;1.55;;;1.00;;
30515;SDS011;17297;54.022;10.760;2023-07-20T09:44:40;1.00;;;0.82;;
30515;SDS011;17297;54.022;10.760;2023-07-20T09:47:08;1.25;;;0.93;;
30515;SDS011;17297;54.022;10.760;2023-07-20T09:49:37;1.73;;;1.05;;
30515;SDS011;17297;54.022;10.760;2023-07-20T09:52:04;1.23;;;1.13;;
30515;SDS011;17297;54.022;10.760;2023-07-20T09:54:30;2.42;;;1.25;;
30515;SDS011;17297;54.022;10.760;2023-07-20T09:56:56;2.80;;;1.10;;
30515;SDS011;17297;54.022;10.760;2023-07-20T09:59:22;1.30;;;1.20;;
30515;SDS011;17297;54.022;10.760;2023-07-20T10:01:48;1.42;;;1.20;;
30515;SDS011;17297;54.022;10.760;2023-07-20T10:04:15;1.08;;;1.00;;
30515;SDS011;17297;54.022;10.760;2023-07-20T10:06:42;1.73;;;1.30;;
30515;SDS011;17297;54.022;10.760;2023-07-20T10:09:12;1.50;;;1.33;;
30515;SDS011;17297;54.022;10.760;2023-07-20T10:11:40;0.70;;;0.70;;
30515;SDS011;17297;54.022;10.760;2023-07-20T10:14:14;0.60;;;0.60;;
30515;SDS011;17297;54.022;10.760;2023-07-20T10:16:46;1.63;;;0.90;;
30515;SDS011;17297;54.022;10.760;2023-07-20T10:19:20;0.60;;;0.60;;
30515;SDS011;17297;54.022;10.760;2023-07-20T10:21:51;0.90;;;0.70;;
30515;SDS011;17297;54.022;10.760;2023-07-20T10:24:37;0.52;;;0.52;;
30515;SDS011;17297;54.022;10.760;2023-07-20T10:27:03;1.08;;;0.93;;
30515;SDS011;17297;54.022;10.760;2023-07-20T10:29:30;0.55;;;0.55;;
30515;SDS011;17297;54.022;10.760;2023-07-20T10:31:56;0.85;;;0.60;;
30515;SDS011;17297;54.022;10.760;2023-07-20T10:34:22;1.30;;;0.50;;
30515;SDS011;17297;54.022;10.760;2023-07-20T10:36:49;1.30;;;0.50;;
30515;SDS011;17297;54.022;10.760;2023-07-20T10:42:12;0.80;;;0.80;;
30515;SDS011;17297;54.022;10.760;2023-07-20T10:44:37;0.50;;;0.50;;
30515;SDS011;17297;54.022;10.760;2023-07-20T10:47:08;1.20;;;0.55;;
30515;SDS011;17297;54.022;10.760;2023-07-20T10:49:34;0.60;;;0.60;;
30515;SDS011;17297;54.022;10.760;2023-07-20T10:52:03;1.05;;;0.50;;
30515;SDS011;17297;54.022;10.760;2023-07-20T10:57:20;0.50;;;0.50;;
30515;SDS011;17297;54.022;10.760;2023-07-20T10:59:47;0.98;;;0.32;;
30515;SDS011;17297;54.022;10.760;2023-07-20T11:02:13;0.43;;;0.43;;
30515;SDS011;17297;54.022;10.760;2023-07-20T11:04:43;0.65;;;0.65;;
30515;SDS011;17297;54.022;10.760;2023-07-20T11:07:15;2.00;;;0.70;;
30515;SDS011;17297;54.022;10.760;2023-07-20T11:09:42;3.63;;;0.55;;
30515;SDS011;17297;54.022;10.760;2023-07-20T11:12:14;0.35;;;0.35;;
30515;SDS011;17297;54.022;10.760;2023-07-20T11:14:41;0.50;;;0.50;;
30515;SDS011;17297;54.022;10.760;2023-07-20T11:17:11;1.52;;;0.50;;
30515;SDS011;17297;54.022;10.760;2023-07-20T11:19:38;0.68;;;0.50;;
30515;SDS011;17297;54.022;10.760;2023-07-20T11:22:05;0.63;;;0.50;;
30515;SDS011;17297;54.022;10.760;2023-07-20T11:24:33;0.50;;;0.50;;
30515;SDS011;17297;54.022;10.760;2023-07-20T11:26:58;0.80;;;0.50;;
30515;SDS011;17297;54.022;10.760;2023-07-20T11:29:25;1.65;;;0.90;;
30515;SDS011;17297;54.022;10.760;2023-07-20T11:31:51;1.45;;;0.77;;
30515;SDS011;17297;54.022;10.760;2023-07-20T11:34:17;1.20;;;0.60;;
30515;SDS011;17297;54.022;10.760;2023-07-20T11:36:45;1.42;;;0.60;;
30515;SDS011;17297;54.022;10.760;2023-07-20T11:39:18;1.35;;;0.60;;
30515;SDS011;17297;54.022;10.760;2023-07-20T11:41:49;0.40;;;0.40;;
30515;SDS011;17297;54.022;10.760;2023-07-20T11:44:19;1.17;;;0.55;;
30515;SDS011;17297;54.022;10.760;2023-07-20T11:46:51;0.38;;;0.32;;
30515;SDS011;17297;54.022;10.760;2023-07-20T11:49:24;1.58;;;0.63;;
30515;SDS011;17297;54.022;10.760;2023-07-20T11:51:50;0.30;;;0.30;;
30515;SDS011;17297;54.022;10.760;2023-07-20T11:54:15;0.82;;;0.65;;
30515;SDS011;17297;54.022;10.760;2023-07-20T11:56:41;0.60;;;0.50;;
30515;SDS011;17297;54.022;10.760;2023-07-20T11:59:07;3.13;;;1.85;;
30515;SDS011;17297;54.022;10.760;2023-07-20T12:01:33;4.00;;;3.67;;
30515;SDS011;17297;54.022;10.760;2023-07-20T12:04:03;3.13;;;2.63;;
30515;SDS011;17297;54.022;10.760;2023-07-20T12:06:29;2.42;;;1.75;;
30515;SDS011;17297;54.022;10.760;2023-07-20T12:08:55;1.30;;;1.20;;
30515;SDS011;17297;54.022;10.760;2023-07-20T12:11:39;1.00;;;0.90;;
30515;SDS011;17297;54.022;10.760;2023-07-20T12:14:07;0.75;;;0.50;;
30515;SDS011;17297;54.022;10.760;2023-07-20T12:16:34;0.60;;;0.60;;
30515;SDS011;17297;54.022;10.760;2023-07-20T12:19:07;2.20;;;0.55;;
30515;SDS011;17297;54.022;10.760;2023-07-20T12:21:37;0.55;;;0.55;;
30515;SDS011;17297;54.022;10.760;2023-07-20T12:24:05;0.95;;;0.70;;
30515;SDS011;17297;54.022;10.760;2023-07-20T12:26:31;4.22;;;1.52;;
30515;SDS011;17297;54.022;10.760;2023-07-20T12:28:57;0.40;;;0.40;;
30515;SDS011;17297;54.022;10.760;2023-07-20T12:31:24;1.13;;;0.57;;
30515;SDS011;17297;54.022;10.760;2023-07-20T12:33:51;2.03;;;1.15;;
30515;SDS011;17297;54.022;10.760;2023-07-20T12:36:17;0.50;;;0.50;;
30515;SDS011;17297;54.022;10.760;2023-07-20T12:38:43;0.90;;;0.55;;
30515;SDS011;17297;54.022;10.760;2023-07-20T12:41:09;1.13;;;0.77;;
30515;SDS011;17297;54.022;10.760;2023-07-20T12:43:37;3.80;;;0.90;;
30515;SDS011;17297;54.022;10.760;2023-07-20T12:46:03;0.93;;;0.80;;
30515;SDS011;17297;54.022;10.760;2023-07-20T12:48:28;1.80;;;0.98;;
30515;SDS011;17297;54.022;10.760;2023-07-20T12:50:53;1.23;;;0.63;;
30515;SDS011;17297;54.022;10.760;2023-07-20T12:53:20;1.33;;;0.70;;
30515;SDS011;17297;54.022;10.760;2023-07-20T12:55:45;1.33;;;0.77;;
30515;SDS011;17297;54.022;10.760;2023-07-20T12:58:11;1.90;;;0.80;;
30515;SDS011;17297;54.022;10.760;2023-07-20T13:00:37;1.05;;;0.70;;
30515;SDS011;17297;54.022;10.760;2023-07-20T13:03:02;0.75;;;0.60;;
30515;SDS011;17297;54.022;10.760;2023-07-20T13:05:30;3.50;;;1.02;;
30515;SDS011;17297;54.022;10.760;2023-07-20T13:07:57;1.80;;;1.55;;
30515;SDS011;17297;54.022;10.760;2023-07-20T13:10:23;2.58;;;0.85;;
30515;SDS011;17297;54.022;10.760;2023-07-20T13:12:48;1.65;;;1.23;;
30515;SDS011;17297;54.022;10.760;2023-07-20T13:15:14;1.38;;;0.70;;
30515;SDS011;17297;54.022;10.760;2023-07-20T13:17:39;1.55;;;0.60;;
30515;SDS011;17297;54.022;10.760;2023-07-20T13:20:05;2.47;;;0.70;;
30515;SDS011;17297;54.022;10.760;2023-07-20T13:22:33;0.60;;;0.60;;
30515;SDS011;17297;54.022;10.760;2023-07-20T13:24:59;0.95;;;0.60;;
30515;SDS011;17297;54.022;10.760;2023-07-20T13:27:24;1.45;;;0.88;;
30515;SDS011;17297;54.022;10.760;2023-07-20T13:29:51;3.05;;;0.82;;
30515;SDS011;17297;54.022;10.760;2023-07-20T13:32:17;2.55;;;1.13;;
30515;SDS011;17297;54.022;10.760;2023-07-20T13:34:45;1.60;;;0.80;;
30515;SDS011;17297;54.022;10.760;2023-07-20T13:37:11;0.95;;;0.90;;
30515;SDS011;17297;54.022;10.760;2023-07-20T13:39:37;0.85;;;0.80;;
30515;SDS011;17297;54.022;10.760;2023-07-20T13:42:03;0.60;;;0.60;;
30515;SDS011;17297;54.022;10.760;2023-07-20T13:44:33;2.30;;;1.35;;
30515;SDS011;17297;54.022;10.760;2023-07-20T13:46:59;1.75;;;0.60;;
30515;SDS011;17297;54.022;10.760;2023-07-20T13:49:25;0.50;;;0.50;;
30515;SDS011;17297;54.022;10.760;2023-07-20T13:51:51;1.95;;;1.10;;
30515;SDS011;17297;54.022;10.760;2023-07-20T13:54:16;1.40;;;0.80;;
30515;SDS011;17297;54.022;10.760;2023-07-20T13:56:41;1.70;;;0.70;;
30515;SDS011;17297;54.022;10.760;2023-07-20T13:59:07;1.92;;;0.93;;
30515;SDS011;17297;54.022;10.760;2023-07-20T14:01:32;1.85;;;0.70;;
30515;SDS011;17297;54.022;10.760;2023-07-20T14:03:59;1.45;;;0.80;;
30515;SDS011;17297;54.022;10.760;2023-07-20T14:06:25;1.52;;;0.75;;
30515;SDS011;17297;54.022;10.760;2023-07-20T14:08:50;1.35;;;0.98;;
30515;SDS011;17297;54.022;10.760;2023-07-20T14:11:18;1.00;;;0.90;;
30515;SDS011;17297;54.022;10.760;2023-07-20T14:13:43;2.50;;;1.50;;
30515;SDS011;17297;54.022;10.760;2023-07-20T14:16:08;2.28;;;0.90;;
30515;SDS011;17297;54.022;10.760;2023-07-20T14:18:34;1.17;;;0.88;;
30515;SDS011;17297;54.022;10.760;2023-07-20T14:21:00;1.77;;;0.93;;
30515;SDS011;17297;54.022;10.760;2023-07-20T14:23:28;4.00;;;0.80;;
30515;SDS011;17297;54.022;10.760;2023-07-20T14:25:53;1.38;;;1.08;;
30515;SDS011;17297;54.022;10.760;2023-07-20T14:28:19;1.42;;;0.80;;
30515;SDS011;17297;54.022;10.760;2023-07-20T14:30:45;0.98;;;0.68;;
30515;SDS011;17297;54.022;10.760;2023-07-20T14:33:10;3.92;;;1.00;;
30515;SDS011;17297;54.022;10.760;2023-07-20T14:35:36;2.88;;;0.90;;
30515;SDS011;17297;54.022;10.760;2023-07-20T14:38:01;0.65;;;0.57;;
30515;SDS011;17297;54.022;10.760;2023-07-20T14:40:27;1.08;;;0.88;;
30515;SDS011;17297;54.022;10.760;2023-07-20T14:42:52;1.48;;;0.60;;